This is the latest recevied weather packets stored in our database for station/object CE4TQY-10. If no packets are shown the sender has not sent any weather packets the latest 10 day(s).
| Time | Temp. | Humidity | Pressure | Rain* | Wind** | Luminosity | Snow |
|---|---|---|---|---|---|---|---|
| 1777941336 | 15.56° C | 48% | 1017.8 hPa | - | - | - | - |
| 1777940434 | 15° C | 51% | 1017.8 hPa | - | - | - | - |
| 1777938632 | 15.56° C | 49% | 1017.6 hPa | - | - | - | - |
| 1777929623 | 18.33° C | 39% | 1017.4 hPa | - | - | - | - |
| 1777921514 | 17.22° C | 48% | 1018.3 hPa | - | - | - | - |
| 1777919712 | 17.22° C | 43% | 1018.6 hPa | - | - | - | - |
| 1777916108 | 17.22° C | 45% | 1019.1 hPa | - | - | - | - |
| 1777915208 | 16.67° C | 47% | 1019.3 hPa | - | - | - | - |
| 1777914307 | 16.67° C | 45% | 1019.3 hPa | - | - | - | - |
| 1777908900 | 16.67° C | 50% | 1019.7 hPa | - | - | - | - |
| 1777905296 | 16.67° C | 50% | 1019.7 hPa | - | - | - | - |
| 1777904395 | 16.67° C | 51% | 1019.6 hPa | - | - | - | - |
| 1777901691 | 16.11° C | 49% | 1019.4 hPa | - | - | - | - |
| 1777900828 | 15.56° C | 49% | 1019.4 hPa | - | - | - | - |
| 1777900790 | 15.56° C | 49% | 1019.4 hPa | - | - | - | - |
| 1777898087 | 15° C | 51% | 1019.3 hPa | - | - | - | - |
| 1777897235 | 15° C | 49% | 1019.3 hPa | - | - | - | - |
| 1777897186 | 15° C | 49% | 1019.3 hPa | - | - | - | - |
| 1777896285 | 15.56° C | 46% | 1019.3 hPa | - | - | - | - |
| 1777895384 | 15° C | 49% | 1019.1 hPa | - | - | - | - |
| 1777894483 | 15° C | 51% | 1019.1 hPa | - | - | - | - |
| 1777893583 | 15° C | 49% | 1019 hPa | - | - | - | - |
| 1777892682 | 15° C | 47% | 1018.9 hPa | - | - | - | - |
| 1777890879 | 14.44° C | 53% | 1018.8 hPa | - | - | - | - |
| 1777889979 | 14.44° C | 53% | 1018.7 hPa | - | - | - | - |
* Rain since midnight (hover to see other rain measurements)
** Current wind speed in m/s (hover to see current wind gust speed)